Time;durP1;ratioP1;P1;durP2;ratioP2;P2;SDS_P1;SDS_P2;PMS_P1;PMS_P2;Temp;Humidity;BMP_temperature;BMP_pressure;BME280_temperature;BME280_humidity;BME280_pressure;Samples;Min_cycle;Max_cycle;Signal;HPM_P1;HPM_P2
2021/01/17 03:27:27;;;;;;;;;;;;;;;;;;;;;
2021/01/17 03:30:25;;;;;;;1999.90;999.90;;;1.90;99.90;;;;;;6287182;22;19994;-96
2021/01/17 03:56:37;;;;;;;1999.90;999.90;;;1.90;99.90;;;;;;6255584;22;20024;-96
2021/01/17 03:59:22;;;;;;;;;;;;;;;;;;;;;
2021/01/17 04:02:17;;;;;;;;;;;1.90;99.90;;;;;;6282128;22;20053;-96
2021/01/17 09:33:07;;;;;;;1999.90;999.90;;;3.10;99.90;;;;;;6162214;23;20079;-96
2021/01/17 10:28:04;;;;;;;1999.90;999.90;;;4.40;99.90;;;;;;6269816;22;20034;-96
2021/01/17 10:34:26;;;;;;;1999.90;999.90;;;4.50;99.90;;;;;;6074883;23;20078;-96
2021/01/17 10:37:47;;;;;;;1999.90;999.90;;;4.60;99.90;;;;;;6137619;23;20021;-96
2021/01/17 10:40:45;;;;;;;1999.90;999.90;;;4.60;99.90;;;;;;6073124;23;20038;-96
2021/01/17 10:58:19;;;;;;;1999.90;999.90;;;5.00;99.90;;;;;;6191596;23;20125;-95
2021/01/17 11:01:01;;;;;;;1999.90;999.90;;;5.10;99.90;;;;;;6189551;23;20024;-96
2021/01/17 11:03:42;;;;;;;1999.90;999.90;;;5.10;99.90;;;;;;6188967;23;20032;-96
2021/01/17 11:06:18;;;;;;;1999.90;999.90;;;5.20;99.90;;;;;;6187798;23;20333;-96
2021/01/17 11:08:56;;;;;;;1999.90;999.90;;;5.20;99.90;;;;;;6214604;22;20019;-96
2021/01/17 11:11:27;;;;;;;1999.90;999.90;;;5.30;99.90;;;;;;6280771;22;20037;-96
2021/01/17 11:14:00;;;;;;;1999.90;999.90;;;5.30;99.90;;;;;;6280896;22;20027;-96
2021/01/17 11:16:35;;;;;;;1999.90;999.90;;;5.30;99.90;;;;;;6280674;22;20020;-95
2021/01/17 11:41:19;;;;;;;1999.90;999.90;;;5.60;99.90;;;;;;6158401;23;20020;-96
2021/01/17 11:44:37;;;;;;;1999.90;999.90;;;5.70;99.90;;;;;;6225314;22;20019;-96
2021/01/17 11:47:18;;;;;;;1999.90;999.90;;;5.70;99.90;;;;;;6280875;22;20016;-95
2021/01/17 11:49:47;;;;;;;1999.90;999.90;;;5.80;99.90;;;;;;6280320;22;20015;-96
2021/01/17 11:57:19;;;;;;;1999.90;999.90;;;5.80;99.90;;;;;;6193468;23;20028;-96
2021/01/17 12:08:24;;;;;;;1999.90;999.90;;;6.00;99.90;;;;;;6193019;23;20047;-96
2021/01/17 12:25:46;;;;;;;1999.90;999.90;;;6.30;99.90;;;;;;5949275;24;20515;-96
2021/01/17 12:44:49;;;;;;;1999.90;999.90;;;6.70;99.90;;;;;;6251926;22;20020;-93
2021/01/17 12:47:38;;;;;;;1999.90;999.90;;;6.80;99.90;;;;;;6249219;23;20020;-95
2021/01/17 12:50:27;;;;;;;;;;;;;;;;;;;;;
2021/01/17 12:56:58;;;;;;;1999.90;999.90;;;7.10;99.90;;;;;;6249368;23;20013;-96
2021/01/17 13:03:28;;;;;;;1999.90;999.90;;;7.20;99.90;;;;;;6261608;23;20020;-96
2021/01/17 13:09:47;;;;;;;1999.90;999.90;;;7.30;99.90;;;;;;6171518;23;20213;-92
2021/01/17 13:12:35;;;;;;;1999.90;999.90;;;7.30;99.90;;;;;;6193043;23;20083;-96
2021/01/17 13:15:17;;;;;;;1999.90;999.90;;;7.30;99.90;;;;;;6185895;23;20021;-93
2021/01/17 13:18:06;;;;;;;1999.90;999.90;;;7.30;99.90;;;;;;6186527;23;20017;-93
2021/01/17 13:28:41;;;;;;;1999.90;999.90;;;7.50;99.90;;;;;;6052681;23;20052;-96
2021/01/17 13:31:34;;;;;;;1999.90;999.90;;;7.40;99.90;;;;;;6028084;23;20027;-96
2021/01/17 13:34:03;;;;;;;1999.90;999.90;;;7.30;99.90;;;;;;6099193;23;20018;-96
2021/01/17 13:43:29;;;;;;;;;;;;;;;;;;;;;
2021/01/17 13:46:01;;;;;;;1999.90;999.90;;;6.80;99.90;;;;;;6054684;23;20078;-96
2021/01/17 13:48:37;;;;;;;1999.90;999.90;;;6.80;99.90;;;;;;6150776;23;20017;-95
2021/01/17 13:52:09;;;;;;;1999.90;999.90;;;6.70;99.90;;;;;;6248301;22;20068;-96
2021/01/17 13:59:09;;;;;;;1999.90;999.90;;;6.60;99.90;;;;;;6159718;23;20467;-95
2021/01/17 14:01:52;;;;;;;1999.90;999.90;;;6.50;99.90;;;;;;6204107;22;20032;-96
2021/01/17 14:04:27;;;;;;;1999.90;999.90;;;6.50;99.90;;;;;;6282579;22;20026;-96
2021/01/17 14:07:03;;;;;;;1999.90;999.90;;;6.40;99.90;;;;;;6282422;22;20046;-96
2021/01/17 14:09:32;;;;;;;1999.90;999.90;;;6.50;99.90;;;;;;6283215;22;20016;-96
2021/01/17 14:12:05;;;;;;;1999.90;999.90;;;6.40;99.90;;;;;;6287470;22;20024;-96
2021/01/17 14:14:37;;;;;;;1999.90;999.90;;;6.40;99.90;;;;;;6287663;22;20020;-96
2021/01/17 14:17:06;;;;;;;1999.90;999.90;;;6.40;99.90;;;;;;6285916;22;20501;-96
2021/01/17 14:19:34;;;;;;;1999.90;999.90;;;6.40;99.90;;;;;;6286061;22;20069;-96
2021/01/17 14:22:29;;;;;;;1999.90;999.90;;;6.40;99.90;;;;;;6281229;22;20081;-93
2021/01/17 14:25:07;;;;;;;1999.90;999.90;;;6.50;99.90;;;;;;6279762;22;20027;-94
2021/01/17 14:28:03;;;;;;;1999.90;999.90;;;6.50;99.90;;;;;;6278508;22;20438;-94
2021/01/17 14:30:35;;;;;;;1999.90;999.90;;;6.40;99.90;;;;;;6278579;22;20019;-94
2021/01/17 14:36:43;;;;;;;1999.90;999.90;;;6.30;99.90;;;;;;6230594;22;20449;-93
2021/01/17 14:39:40;;;;;;;1999.90;999.90;;;6.30;99.90;;;;;;6185400;22;20039;-94
2021/01/17 14:42:11;;;;;;;1999.90;999.90;;;6.20;99.90;;;;;;6296998;22;20023;-93
2021/01/17 14:44:38;;;;;;;1999.90;999.90;;;6.20;99.90;;;;;;6295676;22;20043;-92
2021/01/17 14:47:14;;;;;;;1999.90;999.90;;;6.30;99.90;;;;;;6289717;22;20019;-94
2021/01/17 14:49:43;;;;;;;1999.90;999.90;;;6.30;99.90;;;;;;6271257;22;20015;-95
2021/01/17 14:52:16;;;;;;;1999.90;999.90;;;6.30;99.90;;;;;;6281383;22;20016;-95
2021/01/17 14:54:54;;;;;;;1999.90;999.90;;;6.20;99.90;;;;;;6284107;22;20035;-96
2021/01/17 14:57:29;;;;;;;1999.90;999.90;;;6.20;99.90;;;;;;6287360;22;20020;-95
2021/01/17 15:18:32;;;;;;;1999.90;999.90;;;6.10;99.90;;;;;;6281269;22;20526;-96
2021/01/17 15:29:29;;;;;;;1999.90;999.90;;;6.20;99.90;;;;;;6221147;23;20091;-96
2021/01/17 15:32:15;;;;;;;1999.90;999.90;;;6.20;99.90;;;;;;6263730;22;20015;-93
2021/01/17 15:34:57;;;;;;;1999.90;999.90;;;6.20;99.90;;;;;;6280832;22;20027;-93
2021/01/17 15:41:08;;;;;;;1999.90;999.90;;;6.20;99.90;;;;;;6097875;23;20392;-94
2021/01/17 15:43:36;;;;;;;1999.90;999.90;;;6.20;99.90;;;;;;6156752;23;20025;-93
2021/01/17 15:46:30;;;;;;;1999.90;999.90;;;6.20;99.90;;;;;;6156953;23;20014;-94
2021/01/17 15:57:01;;;;;;;1999.90;999.90;;;6.10;99.90;;;;;;5913774;24;20025;-94
2021/01/17 15:59:45;;;;;;;1999.90;999.90;;;6.10;99.90;;;;;;6026127;23;20020;-93
2021/01/17 16:09:34;;;;;;;1999.90;999.90;;;6.00;99.90;;;;;;6088106;23;20023;-93
2021/01/17 16:12:11;;;;;;;1999.90;999.90;;;6.00;99.90;;;;;;6236646;23;20021;-93
2021/01/17 16:14:44;;;;;;;1999.90;999.90;;;5.90;99.90;;;;;;6238907;23;20005;-93
2021/01/17 16:25:22;;;;;;;1999.90;999.90;;;5.80;99.90;;;;;;6072515;23;20034;-92
2021/01/17 16:28:43;;;;;;;1999.90;999.90;;;5.80;99.90;;;;;;6071483;23;20031;-93
2021/01/17 16:34:52;;;;;;;1999.90;999.90;;;5.70;99.90;;;;;;6075655;23;20023;-94
2021/01/17 16:37:29;;;;;;;1999.90;999.90;;;5.70;99.90;;;;;;6070604;23;20051;-93
2021/01/17 16:51:49;;;;;;;1999.90;999.90;;;5.60;99.90;;;;;;5739924;24;20019;-93
2021/01/17 16:54:26;;;;;;;1999.90;999.90;;;5.50;99.90;;;;;;5778002;24;20023;-92
2021/01/17 17:03:46;;;;;;;1999.90;999.90;;;5.50;99.90;;;;;;5983975;24;20028;-92
2021/01/17 17:06:24;;;;;;;1999.90;999.90;;;5.40;99.90;;;;;;6018586;23;20015;-93
2021/01/17 17:09:06;;;;;;;1999.90;999.90;;;5.40;99.90;;;;;;6042403;23;20043;-93
2021/01/17 17:11:41;;;;;;;1999.90;999.90;;;5.40;99.90;;;;;;6042172;23;20023;-93
2021/01/17 17:14:14;;;;;;;1999.90;999.90;;;5.40;99.90;;;;;;6043541;23;20023;-93
2021/01/17 17:16:55;;;;;;;1999.90;999.90;;;5.30;99.90;;;;;;6043341;23;20019;-93
2021/01/17 17:20:11;;;;;;;1999.90;999.90;;;5.30;99.90;;;;;;6042235;23;20023;-93
2021/01/17 17:27:06;;;;;;;1999.90;999.90;;;5.20;99.90;;;;;;6127582;23;20464;-93
2021/01/17 17:29:52;;;;;;;1999.90;999.90;;;5.20;99.90;;;;;;6128913;23;20025;-94
2021/01/17 17:32:24;;;;;;;;;;;5.10;99.90;;;;;;6129385;23;20073;-93
2021/01/17 17:35:00;;;;;;;1999.90;999.90;;;5.10;99.90;;;;;;6147999;23;19924;-92
2021/01/17 17:37:36;;;;;;;1999.90;999.90;;;5.10;99.90;;;;;;6157080;23;20025;-93
2021/01/17 17:40:34;;;;;;;1999.90;999.90;;;5.10;99.90;;;;;;6157158;23;20077;-93
2021/01/17 17:43:16;;;;;;;1999.90;999.90;;;5.00;99.90;;;;;;6147827;23;20476;-93
2021/01/17 17:45:59;;;;;;;1999.90;999.90;;;5.00;99.90;;;;;;6154744;23;20348;-93
2021/01/17 18:00:28;;;;;;;1999.90;999.90;;;4.90;99.90;;;;;;6040518;23;20022;-93
2021/01/17 18:05:58;;;;;;;1999.90;999.90;;;4.80;99.90;;;;;;6006881;23;20019;-93
2021/01/17 18:08:37;;;;;;;1999.90;999.90;;;4.70;99.90;;;;;;6040233;23;20098;-94
2021/01/17 18:11:21;;;;;;;1999.90;999.90;;;4.70;99.90;;;;;;6040946;23;20023;-94
2021/01/17 18:13:59;;;;;;;1999.90;999.90;;;4.60;99.90;;;;;;6031524;23;20023;-95
2021/01/17 18:17:02;;;;;;;1999.90;999.90;;;4.60;99.90;;;;;;6089847;23;20420;-95
2021/01/17 18:19:30;;;;;;;1999.90;999.90;;;4.60;99.90;;;;;;6127638;23;20105;-95
2021/01/17 18:22:12;;;;;;;1999.90;999.90;;;4.60;99.90;;;;;;6229016;23;20383;-94
2021/01/17 18:25:11;;;;;;;1999.90;999.90;;;4.60;99.90;;;;;;6242920;23;20024;-94
2021/01/17 18:27:46;;;;;;;1999.90;999.90;;;4.60;99.90;;;;;;6248224;23;20090;-94
2021/01/17 18:33:36;;;;;;;1999.90;999.90;;;4.50;99.90;;;;;;6239964;23;20095;-93
2021/01/17 18:36:04;;;;;;;1999.90;999.90;;;4.50;99.90;;;;;;6251332;23;20020;-93
2021/01/17 18:38:50;;;;;;;1999.90;999.90;;;4.50;99.90;;;;;;6261397;23;20542;-93
2021/01/17 18:41:20;;;;;;;1999.90;999.90;;;4.40;99.90;;;;;;6252170;23;20024;-93
2021/01/17 18:43:59;;;;;;;1999.90;999.90;;;4.40;99.90;;;;;;6249025;22;20016;-93
2021/01/17 18:46:41;;;;;;;1999.90;999.90;;;4.40;99.90;;;;;;6251764;23;20035;-93
2021/01/17 18:49:09;;;;;;;1999.90;999.90;;;4.40;99.90;;;;;;6252119;23;20020;-93
2021/01/17 18:51:40;;;;;;;1999.90;999.90;;;4.40;99.90;;;;;;6251422;23;20024;-94
2021/01/17 18:54:22;;;;;;;1999.90;999.90;;;4.40;99.90;;;;;;6236050;22;20046;-93
2021/01/17 18:57:06;;;;;;;1999.90;999.90;;;4.40;99.90;;;;;;6252507;23;20175;-94
2021/01/17 18:59:42;;;;;;;1999.90;999.90;;;4.40;99.90;;;;;;6251752;23;20023;-93
2021/01/17 19:05:17;;;;;;;1999.90;999.90;;;4.40;99.90;;;;;;6234171;23;20020;-93
2021/01/17 19:07:44;;;;;;;1999.90;999.90;;;4.50;99.90;;;;;;6249794;23;20383;-93
2021/01/17 19:10:17;;;;;;;1999.90;999.90;;;4.50;99.90;;;;;;6249213;23;20028;-92
2021/01/17 19:13:02;;;;;;;1999.90;999.90;;;4.40;99.90;;;;;;6248891;23;20039;-94
2021/01/17 19:15:34;;;;;;;1999.90;999.90;;;4.40;99.90;;;;;;6249579;23;20012;-92
2021/01/17 19:18:20;;;;;;;;;;;;;;;;;;;;;
2021/01/17 19:33:04;;;;;;;1999.90;999.90;;;4.40;99.90;;;;;;6127312;23;20373;-92
2021/01/17 19:36:03;;;;;;;1999.90;999.90;;;4.40;99.90;;;;;;6116434;23;20352;-92
2021/01/17 19:39:13;;;;;;;1999.90;999.90;;;4.40;99.90;;;;;;6125943;23;20033;-93
2021/01/17 19:53:06;;;;;;;1999.90;999.90;;;4.50;99.90;;;;;;6054434;23;20014;-96
2021/01/17 19:55:42;;;;;;;1999.90;999.90;;;4.50;99.90;;;;;;6087031;23;20018;-96
2021/01/17 19:58:11;;;;;;;1999.90;999.90;;;4.50;99.90;;;;;;6242907;23;20020;-95
2021/01/17 20:00:56;;;;;;;1999.90;999.90;;;4.50;99.90;;;;;;6249529;23;20415;-96
2021/01/17 20:03:26;;;;;;;1999.90;999.90;;;4.50;99.90;;;;;;6249284;23;20047;-96
2021/01/17 20:05:54;;;;;;;1999.90;999.90;;;4.60;99.90;;;;;;6250182;23;20427;-96
2021/01/17 20:08:30;;;;;;;1999.90;999.90;;;4.60;99.90;;;;;;6250091;23;20513;-95
2021/01/17 20:11:02;;;;;;;1999.90;999.90;;;4.60;99.90;;;;;;6250844;23;20327;-95
2021/01/17 20:13:51;;;;;;;1999.90;999.90;;;4.60;99.90;;;;;;6249638;23;20330;-96
2021/01/17 20:26:51;;;;;;;1999.90;999.90;;;4.70;99.90;;;;;;6106753;23;20068;-96
2021/01/17 20:29:56;;;;;;;1999.90;999.90;;;4.70;99.90;;;;;;6177278;23;20442;-96
2021/01/17 20:36:39;;;;;;;1999.90;999.90;;;4.80;99.90;;;;;;6138675;23;20048;-96
2021/01/17 20:39:18;;;;;;;1999.90;999.90;;;4.80;99.90;;;;;;6130070;23;20021;-96
2021/01/17 20:42:09;;;;;;;1999.90;999.90;;;4.80;99.90;;;;;;6140763;23;20072;-95
2021/01/17 20:44:37;;;;;;;1999.90;999.90;;;4.80;99.90;;;;;;6249851;23;20024;-96
2021/01/17 20:47:21;;;;;;;;;;;;;;;;;;;;;
2021/01/17 20:49:58;;;;;;;1999.90;999.90;;;4.80;99.90;;;;;;6282729;22;20438;-95
2021/01/17 20:52:38;;;;;;;1999.90;999.90;;;4.80;99.90;;;;;;6280285;22;20073;-95
2021/01/17 20:55:12;;;;;;;1999.90;999.90;;;4.90;99.90;;;;;;6282061;22;20026;-96
2021/01/17 20:57:50;;;;;;;1999.90;999.90;;;4.90;99.90;;;;;;6284284;22;20026;-96
2021/01/17 21:00:28;;;;;;;;;;;4.90;99.90;;;;;;6284526;22;20024;-96
2021/01/17 21:03:02;;;;;;;1999.90;999.90;;;4.90;99.90;;;;;;6282819;22;19916;-96
2021/01/17 21:05:36;;;;;;;1999.90;999.90;;;4.80;99.90;;;;;;6283813;22;20040;-95
2021/01/17 21:08:10;;;;;;;1999.90;999.90;;;4.90;99.90;;;;;;6283011;22;20046;-95
2021/01/17 21:10:47;;;;;;;1999.90;999.90;;;4.90;99.90;;;;;;6283094;22;20046;-96
2021/01/17 21:13:52;;;;;;;1999.90;999.90;;;4.90;99.90;;;;;;6281143;22;20016;-96
2021/01/17 21:16:35;;;;;;;1999.90;999.90;;;4.90;99.90;;;;;;6280161;22;20046;-95
2021/01/17 21:19:32;;;;;;;1999.90;999.90;;;4.90;99.90;;;;;;6282668;22;20050;-95
2021/01/17 21:22:03;;;;;;;1999.90;999.90;;;4.80;99.90;;;;;;6281235;22;20054;-94
2021/01/17 21:28:22;;;;;;;;;;;;;;;;;;;;;
2021/01/17 21:30:57;;;;;;;1999.90;999.90;;;4.80;99.90;;;;;;6189277;23;20100;-95
2021/01/17 21:33:35;;;;;;;1999.90;999.90;;;4.80;99.90;;;;;;6188468;23;20021;-95
2021/01/17 21:36:20;;;;;;;1999.90;999.90;;;4.70;99.90;;;;;;6189028;23;20092;-96
2021/01/17 21:39:14;;;;;;;1999.90;999.90;;;4.70;99.90;;;;;;6187549;23;20021;-96
2021/01/17 21:44:56;;;;;;;1999.90;999.90;;;4.60;99.90;;;;;;6185211;23;20075;-95
2021/01/17 21:47:30;;;;;;;1999.90;999.90;;;4.50;99.90;;;;;;6186100;23;20025;-95
2021/01/17 21:50:11;;;;;;;1999.90;999.90;;;4.50;99.90;;;;;;6185175;23;20032;-95
2021/01/17 21:52:48;;;;;;;1999.90;999.90;;;4.40;99.90;;;;;;6186352;23;20432;-96
2021/01/17 21:55:35;;;;;;;1999.90;999.90;;;4.30;99.90;;;;;;6225355;22;20020;-96
2021/01/17 21:58:08;;;;;;;1999.90;999.90;;;4.30;99.90;;;;;;6280575;22;20367;-96
2021/01/17 22:00:36;;;;;;;1999.90;999.90;;;4.20;99.90;;;;;;6278734;22;20019;-92
2021/01/17 22:03:08;;;;;;;1999.90;999.90;;;4.20;99.90;;;;;;6278910;22;20266;-93
2021/01/17 22:05:36;;;;;;;1999.90;999.90;;;4.10;99.90;;;;;;6278113;22;20519;-92
2021/01/17 22:08:10;;;;;;;1999.90;999.90;;;4.10;99.90;;;;;;6278493;22;20049;-93
2021/01/17 22:10:44;;;;;;;1999.90;999.90;;;4.10;99.90;;;;;;6279088;22;20069;-91
2021/01/17 22:13:12;;;;;;;1999.90;999.90;;;4.10;99.90;;;;;;6278767;22;20038;-93
2021/01/17 22:15:44;;;;;;;1999.90;999.90;;;4.00;99.90;;;;;;6277796;22;20026;-93
2021/01/17 22:18:14;;;;;;;1999.90;999.90;;;4.10;99.90;;;;;;6279521;22;20040;-93
2021/01/17 22:20:46;;;;;;;1999.90;999.90;;;4.00;99.90;;;;;;6280330;22;20065;-93
2021/01/17 22:23:13;;;;;;;1999.90;999.90;;;4.00;99.90;;;;;;6280489;22;20362;-94
2021/01/17 22:25:41;;;;;;;1999.90;999.90;;;4.00;99.90;;;;;;6254135;22;20042;-92
2021/01/17 22:28:09;;;;;;;1999.90;999.90;;;4.00;99.90;;;;;;6280452;22;20446;-92
2021/01/17 22:30:40;;;;;;;1999.90;999.90;;;4.00;99.90;;;;;;6281563;22;20057;-92
2021/01/17 22:33:07;;;;;;;1999.90;999.90;;;3.90;99.90;;;;;;6280812;22;20094;-92
2021/01/17 22:35:48;;;;;;;1999.90;999.90;;;3.90;99.90;;;;;;6281140;22;20015;-92
2021/01/17 22:38:17;;;;;;;1999.90;999.90;;;3.80;99.90;;;;;;6280697;22;20067;-93
2021/01/17 22:40:47;;;;;;;1999.90;999.90;;;3.90;99.90;;;;;;6281209;22;20445;-93
2021/01/17 22:43:34;;;;;;;1999.90;999.90;;;3.80;99.90;;;;;;6280217;22;20520;-94
2021/01/17 22:46:08;;;;;;;1999.90;999.90;;;3.80;99.90;;;;;;6280203;22;20015;-91
2021/01/17 22:48:38;;;;;;;1999.90;999.90;;;3.80;99.90;;;;;;6280263;22;20454;-93
2021/01/17 22:51:09;;;;;;;1999.90;999.90;;;3.80;99.90;;;;;;6280237;22;20073;-91
2021/01/17 22:53:49;;;;;;;1999.90;999.90;;;3.80;99.90;;;;;;6280911;22;20086;-93
2021/01/17 22:56:34;;;;;;;1999.90;999.90;;;3.70;99.90;;;;;;6280552;22;20020;-93
2021/01/17 22:59:06;;;;;;;1999.90;999.90;;;3.70;99.90;;;;;;6280187;22;20099;-93
2021/01/17 23:01:33;;;;;;;1999.90;999.90;;;3.70;99.90;;;;;;6280997;22;20019;-93
2021/01/17 23:04:04;;;;;;;1999.90;999.90;;;3.70;99.90;;;;;;6280251;22;20019;-93
2021/01/17 23:06:34;;;;;;;1999.90;999.90;;;3.70;99.90;;;;;;6280006;22;20042;-93
2021/01/17 23:09:10;;;;;;;1999.90;999.90;;;3.80;99.90;;;;;;6281685;22;20023;-91
2021/01/17 23:11:40;;;;;;;1999.90;999.90;;;3.70;99.90;;;;;;6282347;22;20124;-93
2021/01/17 23:14:14;;;;;;;1999.90;999.90;;;3.70;99.90;;;;;;6281471;22;20019;-93
2021/01/17 23:16:46;;;;;;;1999.90;999.90;;;3.70;99.90;;;;;;6282143;22;20023;-92
2021/01/17 23:19:15;;;;;;;1999.90;999.90;;;3.70;99.90;;;;;;6282419;22;20446;-94
2021/01/17 23:21:50;;;;;;;1999.90;999.90;;;3.70;99.90;;;;;;6282684;22;20015;-93
2021/01/17 23:24:17;;;;;;;1999.90;999.90;;;3.70;99.90;;;;;;6281417;22;20174;-93
2021/01/17 23:26:45;;;;;;;1999.90;999.90;;;3.70;99.90;;;;;;6283916;22;20016;-93
2021/01/17 23:29:12;;;;;;;1999.90;999.90;;;3.70;99.90;;;;;;6283196;22;20077;-93
2021/01/17 23:31:44;;;;;;;1999.90;999.90;;;3.70;99.90;;;;;;6282645;22;20122;-94
2021/01/17 23:34:18;;;;;;;1999.90;999.90;;;3.70;99.90;;;;;;6280118;22;20019;-94
2021/01/17 23:36:47;;;;;;;1999.90;999.90;;;3.70;99.90;;;;;;6280904;22;20292;-93
2021/01/17 23:39:18;;;;;;;1999.90;999.90;;;3.60;99.90;;;;;;6280378;22;20023;-93
2021/01/17 23:41:45;;;;;;;1999.90;999.90;;;3.60;99.90;;;;;;6267655;22;20446;-93
2021/01/17 23:44:12;;;;;;;1999.90;999.90;;;3.60;99.90;;;;;;6280669;22;20496;-94
2021/01/17 23:46:45;;;;;;;1999.90;999.90;;;3.60;99.90;;;;;;6279642;22;20085;-93
2021/01/17 23:49:14;;;;;;;1999.90;999.90;;;3.60;99.90;;;;;;6279347;22;20026;-93
2021/01/17 23:51:45;;;;;;;1999.90;999.90;;;3.50;99.90;;;;;;6280919;22;20035;-94
2021/01/17 23:54:14;;;;;;;1999.90;999.90;;;3.50;99.90;;;;;;6279542;22;20085;-93
2021/01/17 23:56:46;;;;;;;1999.90;999.90;;;3.50;99.90;;;;;;6280822;22;20035;-93
2021/01/17 23:59:16;;;;;;;1999.90;999.90;;;3.50;99.90;;;;;;6280604;22;20496;-93
